Arlington, Iowa
Current Conditions -  °F | °C
As of 9:55 AM on Thursday 23 Oct 2014 (Local Time) from KOLZ Reporting Station
Light Rain Light Rain  
Wind Chill:   Ceiling: 4300
Heat Index:   Visibility: 2.5mi
Dew Point:   Wind: 13mph
Humidity: 100%   Direction: 160°SSE
Pressure: 30.06"   Gusts: NA
Location:  42.75°N, 91.67°W
Report Text: KOLZ 231455Z AUTO 16011KT 2 1/2SM -RA FEW029 BKN043 BKN050 08/08 A3006 RMK AO2 P0008
Loading
Personal Weather Stations






























Interactive Weather Map
Tropical Storm Tracking
New forecast layout! Learn more

10-Day Weather Forecast

Advertisements
Track Severe Weather on mobile